METAR Data
IDs: Format: Raw Decoded Include TAF

Data at: 0146 UTC 24 Sep 2018

KHVN 240053Z 01003KT 10SM BKN130 14/13 A3028 RMK AO2 SLP254 T01440128
KHVN 232353Z 00000KT 10SM SCT032 15/13 A3027 RMK AO2 SLP250 T01500128 10194 20150 53012
KHVN 232253Z 00000KT 10SM CLR 16/13 A3026 RMK AO2 SLP245 T01610128
KHVN 232153Z 00000KT 10SM SCT030 BKN120 19/13 A3024 RMK AO2 SLP240 T01890128
KHVN 232053Z 00000KT 10SM BKN032 OVC043 19/12 A3024 RMK AO2 SLP238 T01890122 55000
KHVN 231953Z 14003KT 10SM FEW027 SCT043 19/12 A3023 RMK AO2 SLP237 T01940122
KHVN 231938Z 00000KT 10SM SCT025 BKN043 19/12 A3023 RMK AO2 T01940117
KHVN 231853Z 00000KT 10SM BKN026 OVC035 19/12 A3023 RMK AO2 SLP237 T01890117
KHVN 231824Z 00000KT 10SM BKN029 19/11 A3024 RMK AO2 T01890106
KHVN 231753Z 00000KT 10SM SCT030 19/09 A3024 RMK AO2 SLP239 T01890094 10189 20139 58016
KHVN 231653Z 03003KT 10SM CLR 18/08 A3026 RMK AO2 SLP245 T01830083
KHVN 231553Z 01004KT 10SM BKN031 OVC130 17/09 A3028 RMK AO2 SLP252 T01720094
KHVN 231453Z 35006KT 10SM BKN030 BKN040 OVC047 16/11 A3028 RMK AO2 SLP254 T01610106 52015
KHVN 231353Z 01006KT 10SM SCT027 OVC031 16/10 A3026 RMK AO2 SLP248 T01560100
KHVN 231253Z 02007KT 10SM OVC030 14/10 A3026 RMK AO2 SLP246 T01440100
KHVN 231153Z 03006KT 10SM OVC029 14/09 A3024 RMK AO2 SLP239 T01390094 10150 20139 50003
KHVN 231053Z 02007KT 10SM SCT029 BKN037 BKN047 14/10 A3024 RMK AO2 SLP240 T01390100
KHVN 230953Z 02007KT 10SM OVC029 14/10 A3025 RMK AO2 SLP241 T01440100
KHVN 230853Z AUTO 36007KT 10SM SCT031 14/11 A3023 RMK AO2 SLP237 T01390106 53003
KHVN 230753Z AUTO 02005KT 10SM FEW034 BKN047 14/11 A3022 RMK AO2 SLP233 T01440106
KHVN 230653Z AUTO 02004KT 10SM CLR 14/10 A3021 RMK AO2 SLP230 T01390100
KHVN 230553Z AUTO 01006KT 10SM BKN046 15/11 A3022 RMK AO2 SLP233 T01500106 10189 20144 53003
KHVN 230453Z AUTO 02005KT 10SM BKN046 15/11 A3022 RMK AO2 SLP232 T01500106 402390150
KHVN 230353Z AUTO 03006KT 10SM CLR 16/11 A3021 RMK AO2 SLP231 T01610106
KHVN 230253Z AUTO 02008KT 10SM CLR 17/11 A3021 RMK AO2 SLP230 T01670106 53005
KHVN 230153Z 35008KT 10SM CLR 18/11 A3021 RMK AO2 SLP228 T01780111
KHVN 230053Z 01009KT 10SM CLR 18/12 A3019 RMK AO2 SLP223 T01780122
KHVN 222353Z 34005KT 10SM CLR 19/12 A3020 RMK AO2 SLP225 T01890122 10222 20189 53019
KHVN 222253Z 00000KT 10SM CLR 19/12 A3017 RMK AO2 SLP217 T01940122
KHVN 222153Z 35005KT 10SM CLR 20/12 A3016 RMK AO2 SLP211 T02000117
KHVN 222053Z 35007KT 10SM CLR 21/11 A3014 RMK AO2 SLP206 T02110111 53005
KHVN 221953Z 32006KT 10SM CLR 21/11 A3014 RMK AO2 SLP205 T02110106
KHVN 221853Z 36010G15KT 10SM BKN150 BKN250 22/11 A3013 RMK AO2 SLP201 T02170106
KHVN 221753Z 31010G19KT 270V340 10SM FEW045 SCT150 BKN250 22/11 A3012 RMK AO2 SLP200 T02170106 10228 20206 51009
KHVN 221653Z 33013G20KT 10SM FEW040 BKN150 21/11 A3011 RMK AO2 SLP197 T02110106
KHVN 221553Z 32012G20KT 10SM FEW035 BKN150 21/09 A3011 RMK AO2 SLP195 T02060094
KHVN 221453Z 32010G19KT 10SM FEW035 BKN150 22/12 A3010 RMK AO2 SLP191 T02170117 51025
KHVN 221353Z 33008KT 10SM BKN035 BKN150 23/14 A3008 RMK AO2 SLP186 T02280144